createdAt,value
2019-03-23T00:00:32.934Z,10.20
2019-03-23T00:03:02.676Z,9.40
2019-03-23T00:05:32.396Z,10.13
2019-03-23T00:08:02.145Z,9.83
2019-03-23T00:10:31.910Z,9.07
2019-03-23T00:13:01.651Z,9.57
2019-03-23T00:15:31.502Z,9.07
2019-03-23T00:18:01.174Z,9.27
2019-03-23T00:20:30.927Z,9.20
2019-03-23T00:23:00.657Z,9.53
2019-03-23T00:25:30.365Z,9.63
2019-03-23T00:28:00.105Z,9.27
2019-03-23T00:30:29.845Z,11.27
2019-03-23T00:32:59.556Z,11.07
2019-03-23T00:35:29.588Z,9.33
2019-03-23T00:37:59.408Z,9.10
2019-03-23T00:40:29.125Z,9.37
2019-03-23T00:42:58.875Z,9.40
2019-03-23T00:45:28.623Z,8.80
2019-03-23T00:47:58.371Z,8.40
2019-03-23T00:50:28.164Z,8.60
2019-03-23T00:52:57.861Z,9.53
2019-03-23T00:55:27.563Z,9.27
2019-03-23T00:57:57.295Z,8.90
2019-03-23T01:00:26.990Z,7.87
2019-03-23T01:02:56.808Z,9.37
2019-03-23T01:05:26.521Z,9.03
2019-03-23T01:07:56.223Z,8.00
2019-03-23T01:10:25.950Z,8.97
2019-03-23T01:12:55.708Z,8.97
2019-03-23T01:15:25.456Z,7.87
2019-03-23T01:17:55.159Z,8.40
2019-03-23T01:20:24.870Z,7.97
2019-03-23T01:22:54.652Z,8.60
2019-03-23T01:25:24.432Z,9.00
2019-03-23T01:27:54.118Z,9.17
2019-03-23T01:30:23.929Z,10.00
2019-03-23T01:32:53.613Z,8.80
2019-03-23T01:35:23.418Z,8.90
2019-03-23T01:37:53.134Z,9.00
2019-03-23T01:40:23.024Z,10.00
2019-03-23T01:42:52.764Z,9.40
2019-03-23T01:45:22.539Z,9.70
2019-03-23T01:47:52.210Z,8.50
2019-03-23T01:50:21.967Z,8.63
2019-03-23T01:52:51.648Z,8.53
2019-03-23T01:55:21.377Z,8.80
2019-03-23T01:57:51.106Z,10.10
2019-03-23T02:00:20.835Z,9.00
2019-03-23T02:02:50.711Z,8.93
2019-03-23T02:05:20.484Z,8.60
2019-03-23T02:07:50.176Z,9.23
2019-03-23T02:10:19.890Z,9.43
2019-03-23T02:12:49.622Z,9.13
2019-03-23T02:15:19.325Z,9.60
2019-03-23T02:17:49.053Z,9.13
2019-03-23T02:20:18.753Z,9.27
2019-03-23T02:22:48.471Z,9.00
2019-03-23T02:25:18.267Z,9.90
2019-03-23T02:27:48.012Z,9.80
2019-03-23T02:30:17.863Z,8.33
2019-03-23T02:32:47.613Z,8.83
2019-03-23T02:35:17.314Z,8.90
2019-03-23T02:37:47.134Z,8.00
2019-03-23T02:40:16.806Z,9.97
2019-03-23T02:42:46.541Z,9.60
2019-03-23T02:45:16.315Z,8.40
2019-03-23T02:47:46.049Z,9.70
2019-03-23T02:50:15.754Z,9.70
2019-03-23T02:52:45.492Z,10.33
2019-03-23T02:55:15.232Z,9.27
2019-03-23T02:57:44.957Z,9.23
2019-03-23T03:00:14.737Z,9.33
2019-03-23T03:02:44.449Z,9.13
2019-03-23T03:05:14.372Z,10.53
2019-03-23T03:07:44.231Z,10.00
2019-03-23T03:10:17.768Z,9.40
2019-03-23T03:12:47.442Z,9.77
2019-03-23T03:15:17.182Z,10.00
2019-03-23T03:17:46.950Z,9.60
2019-03-23T03:20:16.790Z,10.30
2019-03-23T03:22:46.564Z,10.27
2019-03-23T03:25:16.310Z,10.47
2019-03-23T03:27:46.062Z,9.30
2019-03-23T03:30:15.819Z,9.93
2019-03-23T03:32:45.458Z,10.27
2019-03-23T03:35:15.295Z,10.13
2019-03-23T03:37:55.869Z,10.10
2019-03-23T03:40:16.606Z,9.67
2019-03-23T03:42:46.267Z,9.53
2019-03-23T03:45:22.475Z,10.63
2019-03-23T03:47:52.168Z,9.53
2019-03-23T03:50:22.117Z,10.13
2019-03-23T03:52:51.798Z,10.93
2019-03-23T03:55:21.491Z,9.67
2019-03-23T03:57:51.177Z,9.90
2019-03-23T04:00:21.003Z,10.57
2019-03-23T04:02:50.713Z,10.13
2019-03-23T04:05:20.508Z,10.13
2019-03-23T04:07:50.304Z,9.60
2019-03-23T04:10:20.025Z,10.80
2019-03-23T04:12:49.720Z,9.93
2019-03-23T04:15:19.553Z,10.13
2019-03-23T04:17:49.221Z,11.40
2019-03-23T04:20:18.900Z,9.67
2019-03-23T04:22:48.582Z,10.40
2019-03-23T04:25:18.285Z,10.00
2019-03-23T04:27:47.985Z,11.13
2019-03-23T04:30:17.787Z,9.10
2019-03-23T04:32:47.459Z,11.93
2019-03-23T04:35:17.165Z,9.83
2019-03-23T04:37:46.966Z,11.30
2019-03-23T04:40:16.741Z,10.90
2019-03-23T04:42:46.423Z,10.23
2019-03-23T04:45:16.131Z,13.13
2019-03-23T04:47:45.917Z,10.27
2019-03-23T04:50:15.645Z,10.37
2019-03-23T04:52:45.387Z,10.07
2019-03-23T04:55:15.892Z,9.37
2019-03-23T04:57:45.619Z,10.63
2019-03-23T05:00:16.152Z,10.40
2019-03-23T05:02:45.954Z,10.07
2019-03-23T05:05:15.762Z,9.90
2019-03-23T05:07:45.473Z,11.17
2019-03-23T05:10:15.295Z,10.17
2019-03-23T05:12:44.986Z,10.93
2019-03-23T05:15:14.809Z,11.13
2019-03-23T05:17:44.524Z,10.83
2019-03-23T05:20:25.019Z,10.10
2019-03-23T05:22:54.740Z,9.73
2019-03-23T05:25:25.850Z,10.60
2019-03-23T05:27:55.570Z,10.67
2019-03-23T05:30:25.279Z,11.17
2019-03-23T05:32:55.144Z,10.33
2019-03-23T05:35:24.841Z,10.30
2019-03-23T05:37:54.561Z,10.87
2019-03-23T05:40:24.466Z,10.97
2019-03-23T05:42:54.203Z,10.63
2019-03-23T05:45:24.414Z,11.87
2019-03-23T05:47:54.127Z,10.77
2019-03-23T05:50:25.650Z,10.57
2019-03-23T05:52:55.376Z,10.27
2019-03-23T05:55:25.063Z,11.60
2019-03-23T05:57:54.749Z,11.70
2019-03-23T06:00:24.583Z,11.67
2019-03-23T06:02:54.345Z,13.07
2019-03-23T06:05:24.777Z,11.20
2019-03-23T06:07:54.605Z,12.13
2019-03-23T06:10:24.411Z,11.77
2019-03-23T06:12:54.111Z,13.83
2019-03-23T06:15:23.901Z,13.60
2019-03-23T06:17:53.629Z,13.07
2019-03-23T06:20:23.383Z,12.87
2019-03-23T06:22:53.226Z,12.17
2019-03-23T06:25:22.946Z,12.40
2019-03-23T06:27:52.715Z,17.57
2019-03-23T06:30:22.367Z,17.53
2019-03-23T06:32:52.048Z,15.90
2019-03-23T06:35:21.732Z,15.07
2019-03-23T06:37:51.525Z,13.23
2019-03-23T06:40:21.269Z,13.90
2019-03-23T06:42:59.418Z,17.93
2019-03-23T06:45:22.673Z,15.13
2019-03-23T06:47:52.512Z,16.33
2019-03-23T06:50:22.253Z,15.90
2019-03-23T06:52:51.996Z,17.53
2019-03-23T06:55:21.762Z,16.43
2019-03-23T06:57:51.626Z,15.80
2019-03-23T07:00:21.466Z,14.60
2019-03-23T07:02:51.150Z,15.07
2019-03-23T07:05:20.878Z,13.07
2019-03-23T07:07:50.644Z,14.03
2019-03-23T07:10:20.603Z,16.63
2019-03-23T07:12:50.337Z,16.70
2019-03-23T07:15:20.654Z,16.80
2019-03-23T07:17:50.453Z,16.50
2019-03-23T07:20:20.148Z,17.43
2019-03-23T07:22:49.877Z,16.40
2019-03-23T07:25:19.631Z,16.47
2019-03-23T07:27:49.404Z,13.90
2019-03-23T07:30:19.533Z,13.17
2019-03-23T07:32:50.430Z,14.80
2019-03-23T07:35:20.137Z,13.73
2019-03-23T07:37:49.943Z,14.17
2019-03-23T07:40:19.739Z,15.97
2019-03-23T07:42:49.528Z,15.20
2019-03-23T07:45:19.385Z,16.27
2019-03-23T07:47:49.067Z,15.03
2019-03-23T07:50:18.832Z,16.20
2019-03-23T07:52:48.549Z,16.90
2019-03-23T07:55:18.359Z,15.70
2019-03-23T07:57:48.364Z,16.10
2019-03-23T08:00:19.644Z,14.77
2019-03-23T08:02:49.510Z,15.00
2019-03-23T08:05:19.478Z,14.37
2019-03-23T08:07:49.221Z,13.80
2019-03-23T08:10:32.669Z,13.23
2019-03-23T08:13:02.601Z,13.80
2019-03-23T08:15:32.738Z,12.83
2019-03-23T08:18:02.462Z,13.70
2019-03-23T08:20:32.174Z,14.63
2019-03-23T08:23:01.912Z,17.97
2019-03-23T08:25:32.011Z,15.13
2019-03-23T08:28:01.774Z,13.97
2019-03-23T08:30:31.520Z,15.57
2019-03-23T08:33:01.240Z,13.87
2019-03-23T08:35:30.957Z,14.50
2019-03-23T08:38:00.650Z,15.70
2019-03-23T08:40:30.394Z,15.73
2019-03-23T08:43:00.169Z,20.77
2019-03-23T08:45:29.997Z,15.50
2019-03-23T08:47:59.751Z,16.03
2019-03-23T08:50:29.488Z,14.40
2019-03-23T08:52:59.392Z,15.77
2019-03-23T08:55:29.202Z,15.00
2019-03-23T08:57:58.941Z,15.05
2019-03-23T09:00:28.618Z,15.20
2019-03-23T09:02:58.405Z,15.43
2019-03-23T09:05:28.171Z,15.08
2019-03-23T09:07:58.217Z,16.20
2019-03-23T09:10:27.923Z,15.03
2019-03-23T09:12:57.628Z,14.25
2019-03-23T09:15:27.374Z,15.48
2019-03-23T09:17:57.048Z,15.28
2019-03-23T09:20:29.367Z,14.70
2019-03-23T09:22:58.540Z,15.13
2019-03-23T09:25:28.255Z,13.90
2019-03-23T09:27:57.955Z,15.20
2019-03-23T09:30:27.793Z,16.90
2019-03-23T09:32:57.574Z,16.57
2019-03-23T09:35:28.936Z,17.87
2019-03-23T09:37:58.696Z,18.32
2019-03-23T09:40:28.483Z,20.30
2019-03-23T09:42:58.283Z,19.40
2019-03-23T09:45:28.044Z,19.50
2019-03-23T09:47:57.797Z,19.70
2019-03-23T09:50:27.610Z,18.77
2019-03-23T09:52:57.324Z,19.97
2019-03-23T09:55:28.667Z,19.20
2019-03-23T09:58:01.948Z,18.93
2019-03-23T10:00:31.650Z,18.30
2019-03-23T10:03:01.396Z,17.00
2019-03-23T10:05:31.095Z,18.87
2019-03-23T10:08:00.961Z,20.00
2019-03-23T10:10:30.892Z,19.93
2019-03-23T10:13:00.745Z,19.30
2019-03-23T10:15:30.444Z,18.90
2019-03-23T10:18:01.656Z,20.30
2019-03-23T10:20:31.516Z,19.55
2019-03-23T10:23:01.344Z,20.10
2019-03-23T10:25:31.178Z,20.03
2019-03-23T10:28:00.950Z,20.62
2019-03-23T10:30:30.707Z,22.03
2019-03-23T10:33:00.621Z,20.68
2019-03-23T10:35:30.418Z,22.00
2019-03-23T10:38:00.173Z,21.90
2019-03-23T10:40:32.707Z,20.88
2019-03-23T10:43:01.775Z,18.90
2019-03-23T10:45:31.486Z,22.13
2019-03-23T10:48:01.198Z,24.20
2019-03-23T10:50:30.941Z,22.77
2019-03-23T10:53:00.706Z,23.77
2019-03-23T10:55:30.490Z,21.90
2019-03-23T10:58:00.259Z,23.55
2019-03-23T11:00:29.979Z,24.27
2019-03-23T11:02:59.896Z,22.85
2019-03-23T11:05:29.892Z,23.30
2019-03-23T11:07:59.632Z,23.75
2019-03-23T11:10:29.378Z,24.27
2019-03-23T11:12:59.226Z,22.03
2019-03-23T11:15:28.967Z,22.80
2019-03-23T11:17:58.732Z,24.85
2019-03-23T11:20:28.541Z,23.73
2019-03-23T11:22:58.290Z,22.53
2019-03-23T11:25:28.149Z,25.05
2019-03-23T11:27:57.870Z,24.55
2019-03-23T11:30:27.627Z,24.92
2019-03-23T11:32:57.442Z,23.70
2019-03-23T11:35:27.228Z,24.82
2019-03-23T11:37:57.132Z,24.45
2019-03-23T11:40:28.007Z,25.37
2019-03-23T11:42:57.757Z,24.87
2019-03-23T11:45:27.530Z,26.57
2019-03-23T11:47:57.227Z,26.33
2019-03-23T11:50:26.954Z,27.15
2019-03-23T11:52:56.827Z,26.25
2019-03-23T11:55:26.545Z,28.35
2019-03-23T11:57:56.394Z,28.70
2019-03-23T12:00:26.244Z,26.62
2019-03-23T12:02:55.974Z,27.05
2019-03-23T12:05:25.708Z,24.92
2019-03-23T12:07:55.485Z,27.40
2019-03-23T12:10:25.269Z,25.77
2019-03-23T12:12:55.152Z,26.27
2019-03-23T12:15:24.905Z,27.48
2019-03-23T12:17:55.011Z,27.37
2019-03-23T12:20:24.847Z,26.27
2019-03-23T12:22:55.291Z,24.80
2019-03-23T12:25:25.112Z,27.53
2019-03-23T12:27:54.832Z,27.22
2019-03-23T12:30:24.574Z,26.50
2019-03-23T12:32:54.305Z,27.52
2019-03-23T12:35:24.135Z,25.95
2019-03-23T12:37:53.909Z,24.72
2019-03-23T12:40:23.660Z,28.85
2019-03-23T12:42:53.482Z,29.10
2019-03-23T12:45:23.339Z,30.12
2019-03-23T12:47:53.075Z,29.40
2019-03-23T12:50:22.772Z,27.62
2019-03-23T12:52:52.522Z,27.07
2019-03-23T12:55:22.256Z,26.70
2019-03-23T12:57:52.040Z,28.70
2019-03-23T13:00:21.784Z,28.52
2019-03-23T13:02:51.574Z,30.05
2019-03-23T13:05:21.312Z,31.37
2019-03-23T13:07:51.056Z,31.45
2019-03-23T13:10:20.795Z,32.53
2019-03-23T13:12:50.489Z,31.60
2019-03-23T13:15:20.215Z,32.40
2019-03-23T13:17:49.921Z,31.85
2019-03-23T13:20:19.762Z,29.75
2019-03-23T13:22:49.593Z,30.23
2019-03-23T13:25:19.383Z,33.53
2019-03-23T13:27:49.134Z,33.45
2019-03-23T13:30:19.441Z,32.38
2019-03-23T13:32:49.192Z,32.85
2019-03-23T13:35:18.963Z,31.75
2019-03-23T13:37:48.706Z,29.40
2019-03-23T13:40:18.499Z,32.20
2019-03-23T13:42:48.607Z,31.00
2019-03-23T13:45:18.839Z,30.55
2019-03-23T13:47:48.595Z,29.67
2019-03-23T13:50:26.377Z,29.18
2019-03-23T13:52:56.157Z,30.02
2019-03-23T13:55:30.032Z,29.70
2019-03-23T13:58:09.246Z,32.75
2019-03-23T14:00:39.110Z,32.63
2019-03-23T14:03:08.981Z,31.90
2019-03-23T14:05:38.851Z,30.75
2019-03-23T14:08:08.809Z,31.75
2019-03-23T14:10:38.541Z,32.15
2019-03-23T14:13:08.297Z,29.48
2019-03-23T14:15:38.039Z,29.20
2019-03-23T14:18:07.904Z,28.87
2019-03-23T14:20:37.637Z,31.77
2019-03-23T14:23:07.449Z,31.93
2019-03-23T14:25:37.179Z,32.42
2019-03-23T14:28:08.223Z,32.67
2019-03-23T14:30:38.018Z,31.77
2019-03-23T14:33:07.764Z,32.23
2019-03-23T14:35:37.677Z,31.17
2019-03-23T14:38:07.429Z,32.33
2019-03-23T14:40:37.143Z,33.13
2019-03-23T14:43:07.006Z,35.55
2019-03-23T14:45:37.038Z,34.53
2019-03-23T14:48:06.972Z,32.73
2019-03-23T14:50:36.836Z,33.48
2019-03-23T14:53:06.947Z,32.67
2019-03-23T14:55:37.560Z,33.60
2019-03-23T14:58:07.313Z,31.83
2019-03-23T15:00:37.011Z,33.33
2019-03-23T15:03:06.982Z,31.43
2019-03-23T15:05:36.885Z,33.80
2019-03-23T15:08:06.610Z,31.42
2019-03-23T15:10:36.339Z,29.80
2019-03-23T15:13:06.144Z,29.45
2019-03-23T15:15:35.919Z,29.63
2019-03-23T15:18:05.735Z,29.17
2019-03-23T15:20:35.646Z,29.05
2019-03-23T15:23:05.560Z,29.20
2019-03-23T15:25:35.303Z,30.27
2019-03-23T15:28:04.986Z,28.07
2019-03-23T15:30:34.693Z,32.33
2019-03-23T15:33:04.499Z,32.37
2019-03-23T15:35:34.529Z,31.25
2019-03-23T15:38:04.562Z,36.47
2019-03-23T15:40:34.327Z,31.30
2019-03-23T15:43:04.211Z,33.20
2019-03-23T15:45:34.082Z,30.68
2019-03-23T15:48:04.189Z,29.70
2019-03-23T15:50:33.967Z,29.90
2019-03-23T15:53:03.892Z,38.00
2019-03-23T15:55:33.708Z,39.73
2019-03-23T15:58:03.560Z,39.20
2019-03-23T16:00:33.436Z,46.37
2019-03-23T16:03:03.201Z,37.50
2019-03-23T16:05:32.921Z,33.37
2019-03-23T16:08:02.640Z,32.00
2019-03-23T16:10:32.506Z,31.93
2019-03-23T16:13:02.337Z,30.23
2019-03-23T16:15:32.278Z,30.03
2019-03-23T16:18:02.099Z,30.43
2019-03-23T16:20:31.923Z,29.17
2019-03-23T16:23:01.652Z,30.47
2019-03-23T16:25:31.522Z,30.67
2019-03-23T16:28:01.377Z,28.80
2019-03-23T16:30:32.879Z,28.97
2019-03-23T16:35:40.012Z,30.40
2019-03-23T17:07:21.266Z,28.23
2019-03-23T17:09:51.285Z,29.00
2019-03-23T17:12:21.042Z,28.83
2019-03-23T17:14:50.871Z,29.17
2019-03-23T19:39:36.677Z,39.77
2019-03-23T19:42:06.484Z,40.03
2019-03-23T19:44:36.346Z,39.77
2019-03-23T19:47:06.175Z,45.60
2019-03-23T19:49:35.930Z,48.93
2019-03-23T19:52:05.760Z,48.97
2019-03-23T19:54:36.724Z,47.20
2019-03-23T19:57:06.557Z,45.87
2019-03-23T19:59:36.467Z,47.23
2019-03-23T20:02:06.468Z,45.53
2019-03-23T20:04:36.413Z,46.77
2019-03-23T20:07:06.505Z,45.87
2019-03-23T20:09:36.342Z,47.67
2019-03-23T20:12:06.178Z,44.40
2019-03-23T20:14:35.963Z,44.50
2019-03-23T20:17:05.886Z,41.27
2019-03-23T20:19:35.696Z,42.07
2019-03-23T20:22:05.475Z,36.13
2019-03-23T20:24:35.325Z,37.83
2019-03-23T20:27:05.145Z,38.97
2019-03-23T20:29:34.942Z,38.33
2019-03-23T20:32:04.721Z,43.20
2019-03-23T20:34:34.537Z,43.30
2019-03-23T20:37:04.492Z,41.27
2019-03-23T20:39:34.454Z,42.60
2019-03-23T20:42:04.186Z,42.40
2019-03-23T20:44:34.083Z,40.63
2019-03-23T20:47:03.802Z,42.13
2019-03-23T20:49:33.543Z,38.57
2019-03-23T20:52:03.361Z,38.57
2019-03-23T20:54:33.391Z,39.07
2019-03-23T20:57:03.282Z,36.90
2019-03-23T20:59:33.054Z,35.87
2019-03-23T21:02:03.047Z,34.27
2019-03-23T21:04:32.930Z,35.37
2019-03-23T21:07:02.745Z,36.10
2019-03-23T21:09:32.516Z,37.23
2019-03-23T21:12:02.339Z,34.23
2019-03-23T21:14:32.145Z,37.87
2019-03-23T21:17:01.883Z,35.97
2019-03-23T21:19:31.634Z,35.80
2019-03-23T21:22:01.487Z,35.30
2019-03-23T21:24:31.378Z,37.70
2019-03-23T21:27:01.172Z,37.33
2019-03-23T21:29:30.957Z,36.97
2019-03-23T21:32:00.782Z,37.07
2019-03-23T21:34:30.496Z,35.80
2019-03-23T21:37:00.348Z,35.90
2019-03-23T21:39:30.122Z,37.83
2019-03-23T21:41:59.881Z,38.70
2019-03-23T21:44:31.194Z,36.97
2019-03-23T21:47:02.727Z,36.10
2019-03-23T21:49:32.628Z,41.33
2019-03-23T21:52:02.473Z,38.53
2019-03-23T21:54:32.263Z,38.07
2019-03-23T21:57:02.083Z,38.37
2019-03-23T21:59:31.905Z,36.60
2019-03-23T22:02:01.654Z,38.57
2019-03-23T22:04:31.466Z,35.77
2019-03-23T22:07:01.419Z,39.30
2019-03-23T22:09:31.272Z,37.27
2019-03-23T22:12:01.268Z,37.93
2019-03-23T22:14:41.171Z,37.17
2019-03-23T22:17:02.583Z,37.97
2019-03-23T22:19:32.293Z,39.27
2019-03-23T22:22:02.035Z,38.87
2019-03-23T22:24:31.803Z,39.90
2019-03-23T22:27:01.612Z,38.63
2019-03-23T22:29:31.468Z,38.93
2019-03-23T22:32:01.449Z,39.23
2019-03-23T22:34:31.369Z,41.10
2019-03-23T22:37:01.057Z,38.97
2019-03-23T22:39:31.139Z,40.80
2019-03-23T22:42:00.933Z,42.00
2019-03-23T22:44:30.763Z,42.23
2019-03-23T22:47:00.476Z,40.43
2019-03-23T22:49:30.639Z,39.47
2019-03-23T22:52:00.545Z,38.17
2019-03-23T22:54:30.522Z,38.57
2019-03-23T22:57:00.257Z,38.20
2019-03-23T22:59:30.094Z,39.27
2019-03-23T23:01:59.994Z,46.67
2019-03-23T23:04:29.737Z,47.00
2019-03-23T23:06:59.473Z,42.53
2019-03-23T23:09:29.222Z,40.73
2019-03-23T23:11:59.014Z,41.03
2019-03-23T23:14:28.741Z,42.67
2019-03-23T23:16:58.414Z,42.67
2019-03-23T23:19:28.369Z,41.27
2019-03-23T23:21:58.090Z,38.50
2019-03-23T23:24:27.845Z,39.23
2019-03-23T23:26:57.562Z,36.30
2019-03-23T23:29:29.118Z,37.13
2019-03-23T23:31:58.885Z,37.63
2019-03-23T23:34:28.629Z,38.07
2019-03-23T23:36:58.462Z,39.33
2019-03-23T23:39:28.247Z,37.43
2019-03-23T23:41:58.032Z,39.63
2019-03-23T23:44:27.762Z,38.37
2019-03-23T23:46:57.492Z,39.70
2019-03-23T23:49:27.164Z,40.17
2019-03-23T23:51:56.990Z,40.17
2019-03-23T23:54:26.683Z,43.77
2019-03-23T23:56:56.696Z,41.57
2019-03-23T23:59:27.819Z,41.57
